Matthew Butler

Recruteur - Plymouth Argyle
25 Sept 2027
Samedi
Processus

Personnalité

Adaptabilité (5) Ambition (10) Controverse (17) Loyauté (13) Pression (19) Professionnalisme (5) Sportivité (11) Tempérament (6)

Profil

Style d'entraînement Démocratique
Diplôme Continental C
Détermination 7
Gestion des joueurs 7
Motivation 10
Discipline 10
Satisfaction professionnelle
89%
Fatigue
0%
Rôle Recruteur
Salaire 21.1K p/s
Contrat 14.03.2029

Performance

Comportement Bon
Efficacité de l'entraînement
40%
Développement des joueurs
60%
Prévention des blessures
20%
Mise en place tactique
60%

Événements récents

A participé à une réunion de recrutement 7j
A participé à une réunion de recrutement 14j
A participé à une réunion de recrutement 21j
A participé à une réunion de recrutement 28j
A participé à une réunion de recrutement 35j
A participé à une réunion de recrutement 42j
A participé à une réunion de recrutement 49j
A participé à une réunion de recrutement 56j

Suivi en cours

86
Joueur Club Statut Capacité Confiance Observé Dernière observation Dernier vote
David Crespo Bolton Wanderers Actif 95 / 99 48% 1 09.08.2027 -
Joel McGregor Swindon Town Actif 88 / 101 40% 3 24.05.2027 -
Sheriff Amuda Shooting Stars Actif 74 / 101 40% 1 24.05.2027 -
Martim Cunha Porto Actif 108 / 102 40% 2 22.05.2027 -
Khama Dolly Black Aces Actif 87 / 77 40% 2 21.05.2027 -
Edmund Inusah WAFA Actif 95 / 90 40% 2 17.05.2027 -
Mauricio Amaro Atlanta United FC Actif 142 / 140 40% 1 17.05.2027 -
Mandla Mokotjo SuperSport United Actif 104 / 93 40% 2 14.05.2027 -
Onuorah Onyedika Kun Khalifat Actif 70 / 74 40% 1 11.05.2027 -
Rhys Chadwick Gillingham Actif 87 / 105 40% 1 08.05.2027 -
Gladson Sulemana Liberty Professionals Actif 108 / 90 40% 3 05.05.2027 -
Hosea Michael Remo Stars Actif 95 / 96 40% 1 04.05.2027 -
Davide Bartesaghi AC Milan Actif 140 / 137 40% 1 03.05.2027 -
Ronan Kpakio Brentford Actif 124 / 118 40% 1 01.05.2027 -
Mandla Khune SuperSport United Actif 68 / 82 40% 1 29.04.2027 -
Maeson King Blackpool Actif 94 / 114 40% 3 27.04.2027 -
Lucas Jetten Cambuur Actif 112 / 114 40% 1 27.04.2027 -
Jake Batty Bristol Rovers Actif 106 / 115 40% 2 26.04.2027 -
Jaydee Canvot Liverpool Perdu 130 / 130 40% 1 26.04.2027 -
Ollie Gofford Excelsior Actif 73 / 92 40% 1 25.04.2027 -
Riley Owen Wycombe Wanderers Actif 88 / 116 40% 2 23.04.2027 -
Jacob Wright Norwich City Actif 127 / 133 40% 1 23.04.2027 -
T-Jay Parfitt Cardiff City Actif 98 / 103 40% 1 20.04.2027 -
Riquelme Thompson-Jones Shrewsbury Town Actif 107 / 106 40% 1 13.04.2027 -
Abraham Paintsil Hasaacas Actif 72 / 86 40% 5 11.04.2027 -
Joe Bauress KV Oostende Actif 94 / 98 40% 1 11.04.2027 -
Caleb Yirenkyi Coventry City Actif 151 / 148 40% 2 10.04.2027 -
Cemran Dansin Orlando Pirates Actif 101 / 115 40% 2 23.03.2027 -
Sam Curtis Swindon Town Actif 113 / 111 40% 1 22.03.2027 -
Dylan Lawlor Cardiff City Actif 102 / 116 40% 2 16.03.2027 -
Nico Valentine Wycombe Wanderers Actif 88 / 81 40% 1 19.01.2027 -
Tariq Lamptey Queens Park Rangers Actif 140 / 125 40% 2 30.12.2026 -
Isaiah Jones Luton Town Actif 119 / 117 40% 2 28.12.2026 -
Japhet Tanganga Sheffield United Actif 128 / 136 40% 2 20.12.2026 -
Florentino Luís Ipswich Town Actif 146 / 130 40% 2 20.12.2026 -
Di'Shon Bernard Sheffield Wednesday Actif 124 / 130 40% 3 18.12.2026 -
Goodman Mosele Chippa United Actif 111 / 119 40% 1 17.12.2026 -
Simphiwe Selepe Orlando Pirates Actif 117 / 103 40% 1 17.12.2026 -
Tshepang Moremi Orlando Pirates Actif 105 / 114 40% 1 16.12.2026 -
Tom Fellows Southampton Actif 115 / 139 40% 1 15.12.2026 -
Neco Williams Nottingham Forest Actif 153 / 150 40% 1 15.12.2026 -
Max Conway Bolton Wanderers Actif 106 / 123 40% 1 13.12.2026 -
Louie Barry Sheffield Wednesday Actif 128 / 117 40% 1 10.12.2026 -
Romaine Mundle Sunderland Actif 142 / 141 40% 1 10.12.2026 -
Ali Ahmed Norwich City Actif 118 / 128 40% 1 09.12.2026 -
Thulani Phiri Platinum Stars Actif 130 / 127 40% 1 08.12.2026 -
Brooke Norton-Cuffy Hull City Actif 135 / 136 40% 1 08.12.2026 -
Jacob Greaves Ipswich Town Actif 125 / 129 40% 2 06.12.2026 -
Josh Edwards Charlton Athletic Actif 120 / 128 40% 1 06.12.2026 -
José Córdoba Norwich City Actif 134 / 117 40% 2 05.12.2026 -
Edoardo Bove Watford Actif 121 / 125 40% 1 05.12.2026 -
Ollie Tanner Cardiff City Actif 122 / 120 40% 1 30.11.2026 -
Milan van Ewijk Coventry City Actif 144 / 131 40% 1 29.11.2026 -
Max Bird Birmingham Actif 138 / 126 40% 1 28.11.2026 -
James Morris Leyton Orient Actif 107 / 115 40% 1 28.11.2026 -
Bobby Thomas Coventry City Actif 121 / 137 40% 1 25.11.2026 -
Simon Ramabu Polokwane City Actif 116 / 103 40% 1 25.11.2026 -
Koki Saito Queens Park Rangers Actif 121 / 128 40% 1 24.11.2026 -
Tim Iroegbunam Hull City Actif 129 / 147 40% 2 22.11.2026 -
Liam Thompson Mansfield Town Actif 110 / 117 40% 1 22.11.2026 -
El Hadji Malick Diouf Brentford Actif 135 / 134 40% 2 21.11.2026 -
Habib Diarra Sunderland Actif 151 / 148 40% 1 18.11.2026 -
Juan Manuel Sanabria Real Salt Lake Actif 108 / 137 40% 1 16.11.2026 -
Finn Azaz Southampton Actif 124 / 135 40% 1 15.11.2026 -
Rumarn Burrell Queens Park Rangers Actif 110 / 118 40% 1 14.11.2026 -
Joaquín Pereyra Minnesota United FC Actif 132 / 139 40% 1 14.11.2026 -
Mduduzi Shabalala Kaizer Chiefs Actif 129 / 104 40% 2 11.11.2026 -
Martín Ojeda Orlando City Actif 141 / 132 40% 1 11.11.2026 -
Aaron Connolly Ruch Actif 121 / 128 40% 1 08.11.2026 -
Oswin Appollis Orlando Pirates Actif 134 / 114 40% 1 06.11.2026 -
Harry Pickering Blackburn Rovers Actif 126 / 107 40% 1 03.11.2026 -
Pelle Mattsson Norwich City Actif 115 / 128 40% 1 03.11.2026 -
Tyler Goodrham Oxford United Actif 133 / 123 40% 1 02.11.2026 -
Sidiki Chérif Coventry City Actif 119 / 132 40% 1 19.10.2026 -
Jake Waters Pineto Actif 75 / 79 40% 1 18.10.2026 -
Miloš Jovičić Zabbar St. Patrick Actif 82 / 96 40% 1 17.10.2026 -
Nicolás Romero Minnesota United FC Actif 133 / 127 40% 1 16.10.2026 -
Alhassan Yusuf New England Revolution Actif 108 / 123 40% 1 16.10.2026 -
Archie Goodwin Charlotte Football Club Actif 121 / 99 40% 1 15.10.2026 -
Pedro Porro Tottenham Actif 148 / 140 40% 2 11.10.2026 -
Nectar Triantis Minnesota United FC Actif 132 / 132 40% 1 10.10.2026 -
Kristoffer Lund Birmingham Actif 138 / 132 40% 1 09.10.2026 -
Kamogelo Sebelebele Orlando Pirates Actif 130 / 103 40% 1 09.10.2026 -
Bryan Ramírez FC Cincinnati Actif 111 / 134 40% 2 06.10.2026 -
Braian Ojeda Orlando City Actif 136 / 134 40% 1 06.10.2026 -
Kyreece Lisbie Colchester United Actif 96 / 115 44% 1 03.08.2026 -